createdAt,value
2023-01-13T00:00:16.133Z,96.37
2023-01-13T00:02:42.886Z,96.71
2023-01-13T00:05:12.401Z,95.44
2023-01-13T00:07:42.839Z,97.27
2023-01-13T00:10:13.016Z,96.29
2023-01-13T00:12:48.643Z,96.27
2023-01-13T00:15:15.658Z,96.54
2023-01-13T00:17:44.643Z,96.13
2023-01-13T00:20:11.669Z,96.71
2023-01-13T00:22:38.289Z,96.63
2023-01-13T00:25:05.635Z,96.27
2023-01-13T00:27:33.267Z,96.87
2023-01-13T00:29:59.864Z,96.68
2023-01-13T00:32:27.305Z,97.54
2023-01-13T00:34:54.434Z,96.82
2023-01-13T00:37:21.273Z,96.46
2023-01-13T00:39:52.247Z,97.24
2023-01-13T00:42:22.589Z,97.96
2023-01-13T00:44:49.865Z,98.90
2023-01-13T00:47:16.597Z,98.37
2023-01-13T00:49:52.702Z,97.69
2023-01-13T00:52:21.986Z,96.86
2023-01-13T00:54:57.389Z,96.39
2023-01-13T00:57:30.759Z,96.32
2023-01-13T00:59:57.396Z,96.05
2023-01-13T01:02:24.101Z,95.76
2023-01-13T01:04:50.755Z,94.94
2023-01-13T01:07:17.394Z,96.30
2023-01-13T01:09:47.075Z,96.62
2023-01-13T01:12:15.703Z,95.83
2023-01-13T01:14:42.329Z,95.33
2023-01-13T01:17:11.730Z,96.54
2023-01-13T01:19:40.125Z,96.35
2023-01-13T01:22:07.776Z,95.71
2023-01-13T01:24:34.990Z,96.19
2023-01-13T01:27:01.649Z,95.58
2023-01-13T01:29:31.073Z,94.81
2023-01-13T01:31:58.382Z,95.55
2023-01-13T01:34:24.963Z,94.82
2023-01-13T01:36:51.575Z,94.48
2023-01-13T01:39:18.172Z,93.86
2023-01-13T01:41:44.768Z,93.99
2023-01-13T01:44:42.262Z,94.48
2023-01-13T01:47:11.818Z,95.23
2023-01-13T01:49:45.880Z,95.80
2023-01-13T01:52:19.507Z,97.20
2023-01-13T01:55:03.888Z,97.46
2023-01-13T01:57:39.540Z,96.60
2023-01-13T02:00:09.384Z,96.70
2023-01-13T02:02:39.712Z,96.20
2023-01-13T02:05:09.036Z,96.98
2023-01-13T02:07:39.152Z,96.88
2023-01-13T02:10:09.192Z,96.97
2023-01-13T02:12:36.679Z,97.26
2023-01-13T02:15:05.569Z,97.73
2023-01-13T02:17:38.292Z,98.06
2023-01-13T02:20:23.293Z,97.85
2023-01-13T02:22:58.714Z,98.48
2023-01-13T02:25:53.078Z,97.90
2023-01-13T02:28:40.551Z,98.21
2023-01-13T02:31:10.510Z,98.06
2023-01-13T02:34:09.648Z,98.51
2023-01-13T02:36:49.058Z,99.05
2023-01-13T02:39:48.992Z,98.90
2023-01-13T02:42:27.819Z,98.57
2023-01-13T02:45:07.723Z,98.23
2023-01-13T02:47:37.992Z,98.71
2023-01-13T02:50:13.029Z,99.36
2023-01-13T02:52:44.560Z,98.86
2023-01-13T02:55:19.892Z,98.95
2023-01-13T02:57:48.392Z,99.68
2023-01-13T03:00:17.059Z,99.31
2023-01-13T03:02:45.469Z,99.27
2023-01-13T03:05:16.381Z,99.01
2023-01-13T03:08:03.496Z,99.44
2023-01-13T03:10:33.257Z,99.60
2023-01-13T03:13:44.721Z,100.00
2023-01-13T03:16:42.324Z,99.60
2023-01-13T03:19:41.367Z,99.88
2023-01-13T03:22:31.572Z,99.46
2023-01-13T03:25:20.841Z,99.53
2023-01-13T03:28:00.582Z,99.75
2023-01-13T03:30:33.033Z,100.00
2023-01-13T03:33:14.609Z,99.52
2023-01-13T03:35:45.961Z,99.35
2023-01-13T03:38:19.522Z,100.00
2023-01-13T03:40:54.497Z,100.00
2023-01-13T03:43:57.912Z,100.00
2023-01-13T03:46:36.298Z,99.80
2023-01-13T03:49:10.678Z,100.00
2023-01-13T03:51:43.628Z,100.00
2023-01-13T03:54:11.981Z,100.00
2023-01-13T03:56:54.735Z,100.00
2023-01-13T03:59:30.115Z,100.00
2023-01-13T04:02:23.930Z,99.47
2023-01-13T04:04:59.715Z,99.19
2023-01-13T04:07:41.583Z,99.21
2023-01-13T04:10:14.726Z,99.37
2023-01-13T04:13:13.446Z,99.39
2023-01-13T04:15:49.951Z,98.71
2023-01-13T04:18:26.007Z,99.38
2023-01-13T04:21:00.544Z,100.00
2023-01-13T04:23:33.697Z,100.00
2023-01-13T04:26:06.116Z,99.07
2023-01-13T04:28:36.751Z,98.88
2023-01-13T04:31:07.146Z,98.93
2023-01-13T04:33:34.351Z,99.67
2023-01-13T04:36:06.173Z,100.00
2023-01-13T04:38:38.633Z,100.00
2023-01-13T04:41:12.755Z,100.00
2023-01-13T04:43:43.555Z,100.00
2023-01-13T04:46:20.322Z,100.00
2023-01-13T04:48:55.921Z,100.00
2023-01-13T04:51:22.509Z,100.00
2023-01-13T04:53:51.657Z,100.00
2023-01-13T04:56:19.363Z,99.74
2023-01-13T04:58:45.965Z,100.00
2023-01-13T05:01:17.752Z,100.00
2023-01-13T05:03:47.959Z,100.00
2023-01-13T05:06:15.501Z,99.84
2023-01-13T05:08:45.543Z,100.00
2023-01-13T05:11:12.127Z,100.00
2023-01-13T05:13:41.789Z,100.00
2023-01-13T05:16:11.419Z,100.00
2023-01-13T05:18:40.273Z,100.00
2023-01-13T05:21:13.684Z,100.00
2023-01-13T05:23:40.282Z,100.00
2023-01-13T05:26:09.886Z,100.00
2023-01-13T05:28:40.288Z,99.87
2023-01-13T05:31:07.284Z,100.00
2023-01-13T05:33:39.869Z,100.00
2023-01-13T05:36:06.805Z,100.00
2023-01-13T05:38:36.996Z,99.06
2023-01-13T05:41:08.172Z,98.08
2023-01-13T05:43:41.502Z,98.72
2023-01-13T05:46:13.813Z,97.83
2023-01-13T05:48:43.288Z,98.75
2023-01-13T05:51:11.948Z,96.48
2023-01-13T05:53:39.111Z,97.46
2023-01-13T05:56:10.811Z,98.48
2023-01-13T05:58:38.292Z,96.46
2023-01-13T06:01:12.319Z,97.33
2023-01-13T06:03:51.865Z,98.12
2023-01-13T06:06:18.726Z,98.37
2023-01-13T06:08:46.835Z,98.60
2023-01-13T06:11:19.168Z,98.59
2023-01-13T06:13:52.309Z,98.73
2023-01-13T06:16:18.966Z,98.94
2023-01-13T06:18:49.881Z,99.07
2023-01-13T06:21:16.550Z,99.00
2023-01-13T06:23:46.388Z,99.35
2023-01-13T06:26:24.899Z,99.82
2023-01-13T06:28:51.565Z,99.53
2023-01-13T06:31:19.183Z,99.48
2023-01-13T06:33:50.747Z,99.70
2023-01-13T06:36:30.944Z,99.62
2023-01-13T06:38:59.972Z,99.30
2023-01-13T06:41:31.249Z,99.18
2023-01-13T06:43:57.819Z,99.04
2023-01-13T06:46:25.587Z,99.34
2023-01-13T06:48:52.122Z,98.85
2023-01-13T06:51:18.707Z,98.71
2023-01-13T06:53:45.289Z,98.96
2023-01-13T06:56:11.877Z,98.49
2023-01-13T06:58:38.458Z,97.94
2023-01-13T07:01:05.146Z,97.54
2023-01-13T07:03:31.775Z,96.92
2023-01-13T07:05:58.303Z,97.66
2023-01-13T07:08:27.556Z,96.75
2023-01-13T07:10:54.540Z,96.79
2023-01-13T07:13:24.769Z,97.44
2023-01-13T07:16:03.506Z,98.19
2023-01-13T07:18:31.897Z,97.44
2023-01-13T07:21:06.742Z,96.87
2023-01-13T07:23:40.554Z,96.67
2023-01-13T07:26:09.498Z,96.29
2023-01-13T07:28:36.776Z,97.06
2023-01-13T07:31:03.815Z,97.54
2023-01-13T07:33:30.472Z,97.24
2023-01-13T07:35:58.695Z,97.40
2023-01-13T07:38:25.632Z,97.47
2023-01-13T07:40:52.240Z,96.79
2023-01-13T07:43:18.860Z,95.91
2023-01-13T07:45:45.565Z,96.42
2023-01-13T07:48:20.976Z,95.96
2023-01-13T07:50:47.542Z,96.26
2023-01-13T07:53:14.139Z,94.93
2023-01-13T07:55:44.077Z,93.77
2023-01-13T07:58:11.280Z,93.31
2023-01-13T08:00:38.796Z,92.90
2023-01-13T08:03:05.446Z,92.62
2023-01-13T08:05:42.945Z,92.82
2023-01-13T08:08:12.873Z,92.70
2023-01-13T08:10:45.497Z,94.47
2023-01-13T08:13:14.873Z,91.74
2023-01-13T08:15:42.568Z,93.34
2023-01-13T08:18:09.209Z,91.85
2023-01-13T08:20:35.808Z,91.82
2023-01-13T08:23:02.456Z,92.08
2023-01-13T08:25:33.610Z,91.20
2023-01-13T08:28:00.179Z,91.37
2023-01-13T08:30:30.466Z,91.53
2023-01-13T08:32:57.092Z,91.06
2023-01-13T08:35:24.019Z,90.79
2023-01-13T08:37:51.561Z,90.66
2023-01-13T08:40:23.336Z,91.01
2023-01-13T08:42:49.906Z,91.01
2023-01-13T08:45:16.628Z,91.38
2023-01-13T08:47:43.184Z,90.33
2023-01-13T08:50:10.464Z,90.66
2023-01-13T08:52:37.536Z,90.15
2023-01-13T08:55:04.512Z,90.12
2023-01-13T08:57:31.147Z,90.26
2023-01-13T08:59:57.791Z,90.43
2023-01-13T09:02:26.072Z,90.21
2023-01-13T09:04:53.798Z,90.50
2023-01-13T09:07:21.402Z,89.84
2023-01-13T09:09:47.948Z,89.75
2023-01-13T09:12:16.224Z,89.96
2023-01-13T09:14:42.819Z,90.27
2023-01-13T09:17:09.398Z,90.81
2023-01-13T09:19:36.143Z,91.02
2023-01-13T09:22:03.052Z,91.65
2023-01-13T09:24:30.139Z,91.24
2023-01-13T09:26:56.722Z,90.10
2023-01-13T09:29:23.456Z,91.07
2023-01-13T09:31:50.076Z,91.48
2023-01-13T09:34:20.681Z,93.00
2023-01-13T09:36:47.309Z,93.21
2023-01-13T09:39:14.279Z,93.50
2023-01-13T09:41:53.504Z,93.23
2023-01-13T09:44:27.907Z,93.81
2023-01-13T09:47:02.717Z,93.71
2023-01-13T09:49:37.424Z,93.12
2023-01-13T09:52:14.682Z,91.91
2023-01-13T09:54:43.876Z,91.19
2023-01-13T09:57:13.297Z,90.60
2023-01-13T09:59:40.343Z,93.85
2023-01-13T10:02:31.920Z,90.68
2023-01-13T10:05:36.376Z,83.99
2023-01-13T10:08:10.371Z,85.82
2023-01-13T10:10:47.128Z,87.20
2023-01-13T10:13:21.891Z,87.33
2023-01-13T10:16:13.070Z,87.30
2023-01-13T10:19:01.111Z,87.02
2023-01-13T10:21:55.540Z,87.02
2023-01-13T10:24:38.627Z,86.50
2023-01-13T10:27:18.845Z,87.27
2023-01-13T10:29:55.592Z,87.40
2023-01-13T10:32:30.627Z,89.22
2023-01-13T10:34:58.157Z,86.64
2023-01-13T10:37:31.633Z,85.55
2023-01-13T10:40:01.970Z,85.23
2023-01-13T10:42:30.030Z,84.89
2023-01-13T10:45:00.439Z,85.26
2023-01-13T10:47:28.751Z,85.38
2023-01-13T10:50:13.451Z,85.51
2023-01-13T10:53:01.521Z,83.78
2023-01-13T10:55:32.797Z,83.57
2023-01-13T10:58:27.802Z,83.84
2023-01-13T11:01:21.037Z,83.62
2023-01-13T11:03:56.712Z,83.93
2023-01-13T11:06:37.651Z,84.56
2023-01-13T11:09:19.816Z,85.34
2023-01-13T11:11:54.255Z,85.59
2023-01-13T11:14:54.453Z,86.19
2023-01-13T11:17:29.709Z,86.60
2023-01-13T11:20:11.245Z,86.91
2023-01-13T11:22:51.433Z,86.65
2023-01-13T11:28:37.640Z,86.18
2023-01-13T11:31:23.559Z,87.15
2023-01-13T11:34:01.215Z,86.26
2023-01-13T11:36:51.380Z,83.87
2023-01-13T11:39:50.276Z,85.01
2023-01-13T11:42:36.732Z,85.89
2023-01-13T11:45:15.223Z,86.34
2023-01-13T11:47:41.773Z,85.96
2023-01-13T11:50:47.652Z,85.79
2023-01-13T11:53:41.920Z,85.40
2023-01-13T11:56:29.153Z,85.08
2023-01-13T11:59:44.324Z,85.64
2023-01-13T12:02:38.277Z,85.66
2023-01-13T12:05:21.417Z,84.80
2023-01-13T12:08:04.579Z,84.67
2023-01-13T12:10:49.157Z,85.23
2023-01-13T12:13:35.213Z,86.01
2023-01-13T12:16:26.058Z,85.36
2023-01-13T12:19:29.561Z,86.61
2023-01-13T12:22:32.609Z,88.13
2023-01-13T12:25:18.760Z,85.02
2023-01-13T12:27:59.506Z,85.88
2023-01-13T12:30:34.299Z,86.26
2023-01-13T12:33:19.843Z,85.93
2023-01-13T12:36:25.025Z,86.37
2023-01-13T12:39:14.885Z,83.56
2023-01-13T12:42:15.057Z,82.89
2023-01-13T12:45:11.404Z,83.17
2023-01-13T12:47:43.912Z,82.13
2023-01-13T12:50:22.310Z,82.12
2023-01-13T12:52:53.492Z,81.39
2023-01-13T12:55:30.169Z,82.01
2023-01-13T12:58:10.479Z,82.00
2023-01-13T13:00:44.905Z,80.91
2023-01-13T13:03:12.473Z,80.94
2023-01-13T13:05:57.183Z,80.49
2023-01-13T13:08:48.807Z,79.66
2023-01-13T13:11:46.888Z,78.98
2023-01-13T13:14:14.367Z,77.83
2023-01-13T13:16:51.313Z,78.82
2023-01-13T13:19:17.855Z,77.75
2023-01-13T13:22:12.166Z,80.30
2023-01-13T13:24:43.159Z,79.84
2023-01-13T13:27:39.784Z,79.52
2023-01-13T13:30:24.521Z,77.26
2023-01-13T13:33:15.893Z,80.82
2023-01-13T13:36:40.034Z,74.85
2023-01-13T13:39:30.292Z,80.34
2023-01-13T13:42:10.953Z,72.04
2023-01-13T13:44:40.762Z,65.03
2023-01-13T13:47:08.142Z,67.48
2023-01-13T13:49:53.373Z,72.98
2023-01-13T13:52:35.050Z,67.13
2023-01-13T13:55:20.958Z,66.30
2023-01-13T13:57:51.564Z,71.79
2023-01-13T14:00:21.071Z,74.34
2023-01-13T14:02:58.599Z,72.88
2023-01-13T14:05:32.141Z,70.82
2023-01-13T14:08:21.241Z,71.04
2023-01-13T14:10:52.109Z,71.53
2023-01-13T14:13:21.978Z,73.62
2023-01-13T14:16:06.803Z,74.00
2023-01-13T14:18:42.450Z,75.64
2023-01-13T14:21:28.278Z,75.47
2023-01-13T14:24:10.713Z,76.27
2023-01-13T14:26:40.318Z,76.31
2023-01-13T14:29:18.139Z,77.65
2023-01-13T14:31:49.165Z,78.38
2023-01-13T14:34:31.001Z,78.03
2023-01-13T14:37:09.521Z,78.12
2023-01-13T14:39:42.542Z,78.98
2023-01-13T14:42:13.629Z,80.42
2023-01-13T14:44:54.399Z,79.51
2023-01-13T14:47:29.743Z,79.35
2023-01-13T14:50:30.238Z,78.61
2023-01-13T14:52:58.544Z,78.54
2023-01-13T14:55:38.537Z,77.90
2023-01-13T14:58:25.086Z,78.92
2023-01-13T15:01:15.067Z,79.87
2023-01-13T15:03:46.092Z,79.61
2023-01-13T15:06:29.019Z,73.15
2023-01-13T15:08:55.853Z,72.51
2023-01-13T15:11:33.560Z,72.12
2023-01-13T15:14:01.673Z,71.95
2023-01-13T15:16:29.000Z,73.30
2023-01-13T15:18:58.754Z,72.10
2023-01-13T15:21:25.358Z,74.81
2023-01-13T15:23:57.723Z,73.58
2023-01-13T15:26:32.706Z,73.17
2023-01-13T15:29:03.801Z,74.07
2023-01-13T15:31:35.166Z,75.18
2023-01-13T15:34:01.722Z,75.44
2023-01-13T15:36:35.116Z,77.04
2023-01-13T15:39:07.728Z,77.28
2023-01-13T15:41:35.187Z,79.90
2023-01-13T15:44:06.778Z,77.69
2023-01-13T15:46:37.145Z,78.55
2023-01-13T15:49:35.535Z,80.10
2023-01-13T15:52:22.025Z,81.74
2023-01-13T15:54:52.122Z,81.70
2023-01-13T15:57:23.252Z,82.84
2023-01-13T16:00:01.525Z,83.50
2023-01-13T16:02:32.282Z,85.06
2023-01-13T16:05:02.523Z,86.47
2023-01-13T16:07:37.136Z,86.50
2023-01-13T16:10:14.201Z,87.54
2023-01-13T16:12:40.759Z,87.96
2023-01-13T16:15:13.370Z,88.67
2023-01-13T16:17:51.758Z,88.98
2023-01-13T16:20:29.277Z,88.36
2023-01-13T16:22:58.505Z,89.59
2023-01-13T16:25:41.423Z,89.66
2023-01-13T16:28:26.488Z,89.61
2023-01-13T16:30:57.701Z,90.55
2023-01-13T16:33:33.280Z,91.28
2023-01-13T16:36:17.414Z,91.27
2023-01-13T16:38:48.739Z,91.62
2023-01-13T16:41:25.914Z,92.20
2023-01-13T16:44:01.155Z,93.20
2023-01-13T16:46:30.137Z,93.45
2023-01-13T16:49:01.761Z,93.00
2023-01-13T16:51:29.091Z,92.52
2023-01-13T16:53:55.701Z,92.72
2023-01-13T16:56:40.845Z,93.00
2023-01-13T16:59:12.766Z,93.18
2023-01-13T17:01:42.716Z,91.99
2023-01-13T17:04:20.424Z,92.12
2023-01-13T17:06:50.467Z,92.24
2023-01-13T17:09:22.792Z,92.59
2023-01-13T17:11:55.580Z,93.23
2023-01-13T17:14:24.137Z,94.21
2023-01-13T17:16:53.880Z,92.77
2023-01-13T17:19:22.124Z,93.05
2023-01-13T17:21:58.932Z,92.83
2023-01-13T17:24:26.071Z,92.97
2023-01-13T17:26:52.692Z,94.51
2023-01-13T17:29:21.914Z,91.93
2023-01-13T17:31:52.099Z,90.13
2023-01-13T17:34:30.942Z,89.53
2023-01-13T17:37:06.702Z,88.75
2023-01-13T17:39:51.297Z,89.85
2023-01-13T17:42:18.245Z,91.73
2023-01-13T17:44:44.917Z,91.11
2023-01-13T17:47:11.511Z,89.95
2023-01-13T17:49:45.763Z,92.76
2023-01-13T17:52:12.550Z,88.35
2023-01-13T17:54:49.664Z,89.66
2023-01-13T17:57:27.732Z,89.80
2023-01-13T17:59:59.247Z,90.71
2023-01-13T18:02:33.543Z,91.42
2023-01-13T18:05:05.968Z,92.40
2023-01-13T18:07:42.317Z,91.95
2023-01-13T18:10:14.090Z,92.72
2023-01-13T18:12:51.405Z,93.55
2023-01-13T18:15:20.289Z,93.49
2023-01-13T18:17:51.922Z,93.13
2023-01-13T18:20:20.488Z,94.00
2023-01-13T18:22:47.768Z,93.64
2023-01-13T18:25:23.318Z,93.60
2023-01-13T18:27:49.986Z,94.38
2023-01-13T18:30:27.409Z,94.37
2023-01-13T18:32:56.184Z,95.19
2023-01-13T18:35:32.332Z,96.76
2023-01-13T18:38:08.747Z,94.16
2023-01-13T18:40:44.191Z,94.39
2023-01-13T18:43:19.460Z,94.48
2023-01-13T18:45:58.696Z,94.88
2023-01-13T18:48:38.206Z,93.91
2023-01-13T18:51:17.542Z,93.75
2023-01-13T18:53:54.837Z,94.78
2023-01-13T18:56:35.161Z,92.45
2023-01-13T18:59:15.755Z,94.51
2023-01-13T19:01:55.251Z,92.12
2023-01-13T19:04:32.558Z,93.28
2023-01-13T19:07:13.433Z,94.00
2023-01-13T19:09:51.856Z,93.98
2023-01-13T19:12:36.336Z,93.81
2023-01-13T19:15:13.778Z,94.73
2023-01-13T19:17:51.481Z,95.85
2023-01-13T19:20:25.387Z,94.42
2023-01-13T19:23:07.603Z,95.35
2023-01-13T19:25:36.809Z,96.35
2023-01-13T19:28:04.803Z,96.41
2023-01-13T19:30:31.492Z,95.86
2023-01-13T19:33:21.887Z,94.62
2023-01-13T19:36:07.213Z,95.96
2023-01-13T19:38:41.597Z,95.62
2023-01-13T19:41:20.288Z,96.02
2023-01-13T19:43:59.082Z,96.89
2023-01-13T19:46:31.740Z,94.98
2023-01-13T19:49:05.800Z,95.43
2023-01-13T19:51:33.397Z,95.05
2023-01-13T19:54:01.356Z,95.40
2023-01-13T19:56:36.382Z,95.92
2023-01-13T19:59:04.093Z,98.34
2023-01-13T20:01:40.714Z,96.69
2023-01-13T20:04:17.527Z,96.92
2023-01-13T20:06:45.207Z,97.03
2023-01-13T20:09:20.256Z,97.53
2023-01-13T20:11:50.937Z,97.10
2023-01-13T20:14:20.794Z,97.45
2023-01-13T20:16:55.592Z,97.65
2023-01-13T20:19:30.621Z,98.61
2023-01-13T20:21:58.266Z,97.90
2023-01-13T20:24:30.865Z,97.58
2023-01-13T20:27:01.531Z,97.62
2023-01-13T20:29:38.420Z,97.85
2023-01-13T20:32:07.551Z,98.47
2023-01-13T20:34:40.767Z,97.26
2023-01-13T20:37:12.427Z,97.58
2023-01-13T20:39:46.490Z,97.18
2023-01-13T20:42:18.865Z,97.41
2023-01-13T20:44:59.133Z,98.34
2023-01-13T20:47:31.727Z,96.47
2023-01-13T20:50:09.450Z,98.34
2023-01-13T20:52:45.918Z,96.28
2023-01-13T20:55:21.281Z,100.00
2023-01-13T20:57:48.918Z,97.74
2023-01-13T21:00:28.469Z,97.27
2023-01-13T21:03:02.362Z,97.62
2023-01-13T21:05:36.172Z,98.73
2023-01-13T21:08:11.532Z,98.59
2023-01-13T21:10:38.849Z,99.19
2023-01-13T21:13:18.868Z,100.00
2023-01-13T21:15:48.131Z,100.00
2023-01-13T21:18:21.960Z,99.19
2023-01-13T21:20:57.980Z,99.18
2023-01-13T21:23:33.219Z,99.83
2023-01-13T21:26:13.229Z,100.00
2023-01-13T21:28:47.238Z,100.00
2023-01-13T21:31:23.753Z,100.00
2023-01-13T21:34:04.076Z,100.00
2023-01-13T21:36:36.900Z,99.95
2023-01-13T21:39:11.057Z,100.00
2023-01-13T21:41:39.972Z,100.00
2023-01-13T21:44:26.891Z,100.00
2023-01-13T21:46:58.779Z,100.00
2023-01-13T21:49:30.999Z,100.00
2023-01-13T21:51:58.275Z,100.00
2023-01-13T21:54:34.023Z,98.89
2023-01-13T21:57:10.739Z,99.80
2023-01-13T21:59:47.560Z,100.00
2023-01-13T22:02:25.211Z,100.00
2023-01-13T22:04:59.477Z,100.00
2023-01-13T22:07:28.514Z,100.00
2023-01-13T22:10:01.109Z,100.00
2023-01-13T22:12:28.087Z,100.00
2023-01-13T22:15:02.870Z,100.00
2023-01-13T22:17:35.041Z,100.00
2023-01-13T22:20:01.977Z,100.00
2023-01-13T22:22:28.954Z,100.00
2023-01-13T22:25:03.106Z,100.00
2023-01-13T22:27:40.646Z,100.00
2023-01-13T22:30:12.579Z,100.00
2023-01-13T22:32:53.833Z,100.00
2023-01-13T22:35:29.584Z,100.00
2023-01-13T22:37:58.770Z,100.00
2023-01-13T22:40:28.035Z,100.00
2023-01-13T22:43:04.503Z,100.00
2023-01-13T22:45:31.125Z,100.00
2023-01-13T22:48:07.841Z,100.00
2023-01-13T22:50:44.364Z,100.00
2023-01-13T22:53:15.354Z,100.00
2023-01-13T22:55:43.850Z,100.00
2023-01-13T22:58:19.448Z,100.00
2023-01-13T23:00:49.495Z,100.00
2023-01-13T23:03:23.570Z,100.00
2023-01-13T23:06:04.508Z,100.00
2023-01-13T23:08:45.329Z,100.00
2023-01-13T23:11:14.033Z,100.00
2023-01-13T23:13:41.565Z,100.00
2023-01-13T23:16:26.819Z,100.00
2023-01-13T23:18:56.149Z,100.00
2023-01-13T23:21:41.117Z,100.00
2023-01-13T23:24:19.235Z,100.00
2023-01-13T23:26:54.464Z,100.00
2023-01-13T23:29:34.147Z,100.00
2023-01-13T23:32:11.225Z,100.00
2023-01-13T23:34:39.573Z,100.00
2023-01-13T23:37:06.317Z,100.00
2023-01-13T23:39:40.268Z,100.00
2023-01-13T23:42:21.027Z,100.00
2023-01-13T23:44:58.735Z,100.00
2023-01-13T23:47:29.169Z,100.00
2023-01-13T23:49:58.680Z,100.00
2023-01-13T23:52:36.548Z,100.00
2023-01-13T23:55:20.068Z,100.00
2023-01-13T23:57:48.195Z,100.00
